createdAt,value
2023-03-06T00:00:59.565Z,-4.38
2023-03-06T00:03:28.232Z,-4.40
2023-03-06T00:05:57.548Z,-4.35
2023-03-06T00:08:24.946Z,-4.36
2023-03-06T00:10:51.722Z,-4.43
2023-03-06T00:13:21.141Z,-4.41
2023-03-06T00:15:48.885Z,-4.37
2023-03-06T00:18:15.754Z,-4.30
2023-03-06T00:20:43.074Z,-4.33
2023-03-06T00:23:10.475Z,-4.21
2023-03-06T00:25:38.913Z,-4.17
2023-03-06T00:28:06.304Z,-4.33
2023-03-06T00:30:33.448Z,-4.22
2023-03-06T00:33:00.217Z,-4.24
2023-03-06T00:35:27.047Z,-4.18
2023-03-06T00:37:53.986Z,-4.23
2023-03-06T00:40:21.280Z,-4.15
2023-03-06T00:42:48.376Z,-4.15
2023-03-06T00:45:15.288Z,-4.15
2023-03-06T00:47:42.154Z,-4.22
2023-03-06T00:50:09.995Z,-4.22
2023-03-06T00:52:36.893Z,-4.25
2023-03-06T00:55:04.285Z,-4.14
2023-03-06T00:57:31.071Z,-4.19
2023-03-06T00:59:57.843Z,-4.10
2023-03-06T01:02:24.768Z,-4.18
2023-03-06T01:04:51.579Z,-4.14
2023-03-06T01:07:18.461Z,-4.16
2023-03-06T01:09:45.308Z,-4.18
2023-03-06T01:12:12.175Z,-4.04
2023-03-06T01:14:39.018Z,-4.02
2023-03-06T01:17:05.943Z,-3.93
2023-03-06T01:19:32.809Z,-4.02
2023-03-06T01:21:59.575Z,-3.97
2023-03-06T01:24:26.325Z,-3.90
2023-03-06T01:26:53.079Z,-3.98
2023-03-06T01:29:20.334Z,-3.93
2023-03-06T01:31:47.173Z,-3.87
2023-03-06T01:34:13.991Z,-3.89
2023-03-06T01:36:40.872Z,-3.97
2023-03-06T01:39:07.687Z,-3.87
2023-03-06T01:41:34.499Z,-3.81
2023-03-06T01:44:01.943Z,-3.78
2023-03-06T01:46:28.613Z,-3.80
2023-03-06T01:48:59.491Z,-3.91
2023-03-06T01:51:38.886Z,-3.94
2023-03-06T01:54:09.484Z,-3.95
2023-03-06T01:56:36.320Z,-3.88
2023-03-06T01:59:03.127Z,-3.92
2023-03-06T02:01:31.134Z,-4.02
2023-03-06T02:03:57.929Z,-4.06
2023-03-06T02:06:24.714Z,-4.10
2023-03-06T02:08:51.880Z,-4.14
2023-03-06T02:11:31.334Z,-4.12
2023-03-06T02:13:58.115Z,-4.11
2023-03-06T02:16:26.896Z,-4.21
2023-03-06T02:18:53.757Z,-4.36
2023-03-06T02:21:25.631Z,-4.25
2023-03-06T02:23:56.211Z,-4.17
2023-03-06T02:26:23.008Z,-4.17
2023-03-06T02:28:49.798Z,-4.21
2023-03-06T02:31:28.493Z,-4.22
2023-03-06T02:34:03.253Z,-4.30
2023-03-06T02:36:30.020Z,-4.21
2023-03-06T02:38:56.801Z,-4.21
2023-03-06T02:41:23.635Z,-4.33
2023-03-06T02:43:50.384Z,-4.26
2023-03-06T02:46:17.257Z,-4.22
2023-03-06T02:48:44.080Z,-4.29
2023-03-06T02:51:10.831Z,-4.25
2023-03-06T02:53:37.616Z,-4.42
2023-03-06T02:56:04.529Z,-4.37
2023-03-06T02:58:31.310Z,-4.32
2023-03-06T03:00:58.117Z,-4.33
2023-03-06T03:03:24.852Z,-4.37
2023-03-06T03:05:51.613Z,-4.39
2023-03-06T03:08:18.438Z,-4.34
2023-03-06T03:10:45.224Z,-4.38
2023-03-06T03:13:11.984Z,-4.45
2023-03-06T03:15:38.893Z,-4.41
2023-03-06T03:18:05.697Z,-4.44
2023-03-06T03:20:32.476Z,-4.40
2023-03-06T03:22:59.260Z,-4.44
2023-03-06T03:25:26.193Z,-4.58
2023-03-06T03:27:53.003Z,-4.50
2023-03-06T03:30:19.938Z,-4.54
2023-03-06T03:32:46.781Z,-4.66
2023-03-06T03:35:13.580Z,-4.56
2023-03-06T03:37:40.374Z,-4.60
2023-03-06T03:40:08.046Z,-4.63
2023-03-06T03:42:34.901Z,-4.65
2023-03-06T03:45:01.802Z,-4.64
2023-03-06T03:47:28.589Z,-4.62
2023-03-06T03:49:55.394Z,-4.62
2023-03-06T03:52:22.135Z,-4.64
2023-03-06T03:54:48.921Z,-4.65
2023-03-06T03:57:15.779Z,-4.65
2023-03-06T03:59:42.568Z,-4.74
2023-03-06T04:02:09.462Z,-4.63
2023-03-06T04:04:36.325Z,-4.65
2023-03-06T04:07:04.496Z,-4.70
2023-03-06T04:09:31.361Z,-4.74
2023-03-06T04:11:58.294Z,-4.73
2023-03-06T04:14:25.071Z,-4.78
2023-03-06T04:16:51.893Z,-4.76
2023-03-06T04:19:18.747Z,-4.79
2023-03-06T04:21:45.577Z,-4.86
2023-03-06T04:24:12.420Z,-4.83
2023-03-06T04:26:39.230Z,-4.90
2023-03-06T04:29:06.027Z,-5.12
2023-03-06T04:31:32.862Z,-5.01
2023-03-06T04:33:59.688Z,-5.07
2023-03-06T04:36:31.584Z,-5.10
2023-03-06T04:38:58.605Z,-5.17
2023-03-06T04:41:25.373Z,-5.24
2023-03-06T04:43:52.387Z,-5.25
2023-03-06T04:46:19.163Z,-5.34
2023-03-06T04:48:45.961Z,-5.24
2023-03-06T04:51:13.285Z,-5.21
2023-03-06T04:53:40.108Z,-5.21
2023-03-06T04:56:07.211Z,-5.27
2023-03-06T04:58:34.002Z,-5.23
2023-03-06T05:01:00.948Z,-5.22
2023-03-06T05:03:27.914Z,-5.29
2023-03-06T05:05:54.707Z,-5.34
2023-03-06T05:08:21.547Z,-5.30
2023-03-06T05:10:56.728Z,-5.30
2023-03-06T05:13:23.641Z,-5.31
2023-03-06T05:15:50.410Z,-5.44
2023-03-06T05:18:17.326Z,-5.47
2023-03-06T05:20:44.117Z,-5.48
2023-03-06T05:23:10.964Z,-5.51
2023-03-06T05:25:40.904Z,-5.38
2023-03-06T05:28:08.132Z,-5.39
2023-03-06T05:30:35.010Z,-5.44
2023-03-06T05:33:01.775Z,-5.35
2023-03-06T05:35:28.675Z,-5.35
2023-03-06T05:37:55.427Z,-5.29
2023-03-06T05:40:22.300Z,-5.21
2023-03-06T05:42:49.093Z,-5.13
2023-03-06T05:45:15.896Z,-5.13
2023-03-06T05:47:42.669Z,-5.04
2023-03-06T05:50:10.639Z,-4.88
2023-03-06T05:52:39.747Z,-4.83
2023-03-06T05:55:07.574Z,-4.72
2023-03-06T05:57:34.358Z,-4.64
2023-03-06T06:00:01.222Z,-4.62
2023-03-06T06:02:28.090Z,-4.57
2023-03-06T06:04:54.880Z,-4.47
2023-03-06T06:07:21.809Z,-4.32
2023-03-06T06:09:48.575Z,-4.20
2023-03-06T06:12:15.375Z,-4.05
2023-03-06T06:14:42.234Z,-3.87
2023-03-06T06:17:09.099Z,-3.69
2023-03-06T06:19:35.987Z,-3.64
2023-03-06T06:22:03.918Z,-3.34
2023-03-06T06:24:31.016Z,-3.14
2023-03-06T06:26:58.237Z,-2.62
2023-03-06T06:29:25.406Z,-2.14
2023-03-06T06:31:52.408Z,-1.79
2023-03-06T06:34:19.365Z,-1.43
2023-03-06T06:36:46.253Z,-1.12
2023-03-06T06:39:15.608Z,-0.77
2023-03-06T06:41:59.325Z,-0.45
2023-03-06T06:44:29.215Z,-0.29
2023-03-06T06:49:42.741Z,0.14
2023-03-06T06:52:10.615Z,0.34
2023-03-06T06:54:37.408Z,0.79
2023-03-06T06:57:04.244Z,1.10
2023-03-06T06:59:31.156Z,1.42
2023-03-06T07:01:58.002Z,1.90
2023-03-06T07:04:24.813Z,2.24
2023-03-06T07:06:51.591Z,2.68
2023-03-06T07:09:18.412Z,3.04
2023-03-06T07:11:45.179Z,3.56
2023-03-06T07:14:11.968Z,3.99
2023-03-06T07:16:38.830Z,4.41
2023-03-06T07:19:06.056Z,4.88
2023-03-06T07:21:32.830Z,5.36
2023-03-06T07:23:59.733Z,5.78
2023-03-06T07:26:27.161Z,6.22
2023-03-06T07:28:54.437Z,6.68
2023-03-06T07:31:22.466Z,7.01
2023-03-06T07:33:50.180Z,7.37
2023-03-06T07:36:17.151Z,7.83
2023-03-06T07:38:43.963Z,8.27
2023-03-06T07:41:13.679Z,8.68
2023-03-06T07:43:41.336Z,9.21
2023-03-06T07:46:08.717Z,9.62
2023-03-06T07:48:36.440Z,10.09
2023-03-06T07:51:07.984Z,10.63
2023-03-06T07:53:35.003Z,11.07
2023-03-06T07:56:01.810Z,11.53
2023-03-06T07:58:28.686Z,11.98
2023-03-06T08:00:55.424Z,12.29
2023-03-06T08:03:22.224Z,12.93
2023-03-06T08:05:49.022Z,13.66
2023-03-06T08:08:15.804Z,14.49
2023-03-06T08:10:47.958Z,15.16
2023-03-06T08:13:14.769Z,15.77
2023-03-06T08:15:41.555Z,16.25
2023-03-06T08:18:08.331Z,16.81
2023-03-06T08:20:35.063Z,17.16
2023-03-06T08:23:01.829Z,17.48
2023-03-06T08:25:29.536Z,17.87
2023-03-06T08:27:56.299Z,18.30
2023-03-06T08:30:23.182Z,18.51
2023-03-06T08:32:50.070Z,18.87
2023-03-06T08:35:16.861Z,19.16
2023-03-06T08:37:43.685Z,19.39
2023-03-06T08:40:11.286Z,19.65
2023-03-06T08:42:38.012Z,19.92
2023-03-06T08:45:06.133Z,20.43
2023-03-06T08:47:34.962Z,20.41
2023-03-06T08:50:01.687Z,20.93
2023-03-06T08:52:28.477Z,21.19
2023-03-06T08:54:55.225Z,21.50
2023-03-06T08:57:21.975Z,21.59
2023-03-06T08:59:48.752Z,21.26
2023-03-06T09:02:15.675Z,20.70
2023-03-06T09:04:42.473Z,18.39
2023-03-06T09:07:09.256Z,16.45
2023-03-06T09:09:36.158Z,14.89
2023-03-06T09:12:03.033Z,15.42
2023-03-06T09:14:30.893Z,16.82
2023-03-06T09:16:57.878Z,18.29
2023-03-06T09:19:24.728Z,19.50
2023-03-06T09:21:51.546Z,20.58
2023-03-06T09:24:18.364Z,21.49
2023-03-06T09:26:47.181Z,22.37
2023-03-06T09:29:16.531Z,22.95
2023-03-06T09:31:43.959Z,23.65
2023-03-06T09:34:10.738Z,24.10
2023-03-06T09:36:53.434Z,23.94
2023-03-06T09:39:22.263Z,23.58
2023-03-06T09:41:49.619Z,22.85
2023-03-06T09:44:26.102Z,21.43
2023-03-06T09:46:58.602Z,19.90
2023-03-06T09:49:44.843Z,19.00
2023-03-06T09:52:46.932Z,20.49
2023-03-06T09:55:17.011Z,22.19
2023-03-06T09:57:58.131Z,23.94
2023-03-06T10:00:30.992Z,22.98
2023-03-06T10:03:01.216Z,22.35
2023-03-06T10:05:33.584Z,23.68
2023-03-06T10:08:12.649Z,25.56
2023-03-06T10:11:02.274Z,26.57
2023-03-06T10:13:42.555Z,27.76
2023-03-06T10:16:24.096Z,26.77
2023-03-06T10:18:51.057Z,25.21
2023-03-06T10:21:31.455Z,23.06
2023-03-06T10:24:15.790Z,20.90
2023-03-06T10:26:45.312Z,19.35
2023-03-06T10:29:33.772Z,19.30
2023-03-06T10:32:23.275Z,19.25
2023-03-06T10:34:50.104Z,18.10
2023-03-06T10:37:21.696Z,17.99
2023-03-06T10:39:52.654Z,19.88
2023-03-06T10:42:19.449Z,22.04
2023-03-06T10:44:46.235Z,24.10
2023-03-06T10:47:35.186Z,26.02
2023-03-06T10:50:03.223Z,26.04
2023-03-06T10:52:31.983Z,24.44
2023-03-06T10:55:30.557Z,23.03
2023-03-06T10:57:57.452Z,23.29
2023-03-06T11:00:36.155Z,24.79
2023-03-06T11:03:22.594Z,25.04
2023-03-06T11:06:06.657Z,24.09
2023-03-06T11:08:33.654Z,22.49
2023-03-06T11:11:03.230Z,20.79
2023-03-06T11:13:32.440Z,19.37
2023-03-06T11:16:19.564Z,19.23
2023-03-06T11:19:00.657Z,18.21
2023-03-06T11:21:32.209Z,17.46
2023-03-06T11:24:09.251Z,16.74
2023-03-06T11:26:45.850Z,16.15
2023-03-06T11:29:36.925Z,15.59
2023-03-06T11:32:33.372Z,15.10
2023-03-06T11:35:16.405Z,15.05
2023-03-06T11:37:46.847Z,15.64
2023-03-06T11:40:33.836Z,15.46
2023-03-06T11:43:38.091Z,15.04
2023-03-06T11:46:10.569Z,14.62
2023-03-06T11:48:44.216Z,14.30
2023-03-06T11:51:30.887Z,14.14
2023-03-06T11:53:58.974Z,13.89
2023-03-06T11:56:47.369Z,13.79
2023-03-06T11:59:42.032Z,13.72
2023-03-06T12:02:39.706Z,13.66
2023-03-06T12:05:25.060Z,13.48
2023-03-06T12:08:09.848Z,13.45
2023-03-06T12:10:42.030Z,13.54
2023-03-06T12:13:33.710Z,13.63
2023-03-06T12:16:27.502Z,13.42
2023-03-06T12:18:54.303Z,13.15
2023-03-06T12:21:45.554Z,12.77
2023-03-06T12:24:30.511Z,12.39
2023-03-06T12:26:57.213Z,12.08
2023-03-06T12:29:36.829Z,11.78
2023-03-06T12:32:03.638Z,11.50
2023-03-06T12:34:45.588Z,11.22
2023-03-06T12:37:17.548Z,10.89
2023-03-06T12:39:48.444Z,10.59
2023-03-06T12:42:33.986Z,10.37
2023-03-06T12:45:15.507Z,10.21
2023-03-06T12:47:43.508Z,10.03
2023-03-06T12:50:19.658Z,9.84
2023-03-06T12:52:46.448Z,9.64
2023-03-06T12:55:15.895Z,9.51
2023-03-06T12:57:42.671Z,9.39
2023-03-06T13:00:34.533Z,9.33
2023-03-06T13:03:04.201Z,9.36
2023-03-06T13:05:52.583Z,9.29
2023-03-06T13:08:56.957Z,9.28
2023-03-06T13:11:28.453Z,9.28
2023-03-06T13:13:55.249Z,9.35
2023-03-06T13:16:29.020Z,9.38
2023-03-06T13:19:01.392Z,9.48
2023-03-06T13:21:55.657Z,9.46
2023-03-06T13:24:37.360Z,9.50
2023-03-06T13:27:09.465Z,9.56
2023-03-06T13:29:36.179Z,9.66
2023-03-06T13:32:03.146Z,9.76
2023-03-06T13:34:50.190Z,9.81
2023-03-06T13:37:17.042Z,9.80
2023-03-06T13:39:55.774Z,9.89
2023-03-06T13:42:26.471Z,9.90
2023-03-06T13:44:53.309Z,10.04
2023-03-06T13:47:21.804Z,10.07
2023-03-06T13:49:48.614Z,10.16
2023-03-06T13:52:23.154Z,10.20
2023-03-06T13:55:08.081Z,10.15
2023-03-06T13:57:57.480Z,10.04
2023-03-06T14:00:58.078Z,9.94
2023-03-06T14:03:49.863Z,9.82
2023-03-06T14:06:35.271Z,9.68
2023-03-06T14:09:05.595Z,9.43
2023-03-06T14:11:32.491Z,9.43
2023-03-06T14:13:59.510Z,9.15
2023-03-06T14:16:37.545Z,9.11
2023-03-06T14:19:15.750Z,8.86
2023-03-06T14:21:47.571Z,8.54
2023-03-06T14:24:19.028Z,8.47
2023-03-06T14:26:52.106Z,8.28
2023-03-06T14:29:23.580Z,8.16
2023-03-06T14:31:51.770Z,8.03
2023-03-06T14:34:21.846Z,7.95
2023-03-06T14:36:50.290Z,7.87
2023-03-06T14:39:34.138Z,7.74
2023-03-06T14:42:21.151Z,7.65
2023-03-06T14:44:48.842Z,7.47
2023-03-06T14:47:35.042Z,7.29
2023-03-06T14:50:24.472Z,6.98
2023-03-06T14:52:56.289Z,6.66
2023-03-06T14:55:24.763Z,6.32
2023-03-06T14:58:11.072Z,6.03
2023-03-06T15:00:40.931Z,5.80
2023-03-06T15:03:12.980Z,5.59
2023-03-06T15:05:39.810Z,5.38
2023-03-06T15:08:07.469Z,5.23
2023-03-06T15:10:34.936Z,5.07
2023-03-06T15:13:28.959Z,4.83
2023-03-06T15:16:04.686Z,4.60
2023-03-06T15:18:39.217Z,4.50
2023-03-06T15:21:10.909Z,4.33
2023-03-06T15:23:42.093Z,4.16
2023-03-06T15:26:29.524Z,4.08
2023-03-06T15:29:10.359Z,3.98
2023-03-06T15:31:42.139Z,3.85
2023-03-06T15:34:11.627Z,3.85
2023-03-06T15:36:39.115Z,3.76
2023-03-06T15:39:27.609Z,3.81
2023-03-06T15:42:20.429Z,3.73
2023-03-06T15:44:54.289Z,3.71
2023-03-06T15:47:21.714Z,3.66
2023-03-06T15:49:53.395Z,3.66
2023-03-06T15:52:23.293Z,3.52
2023-03-06T15:54:50.187Z,3.49
2023-03-06T15:57:25.322Z,3.38
2023-03-06T15:59:52.133Z,3.27
2023-03-06T16:02:20.473Z,3.18
2023-03-06T16:04:47.414Z,2.91
2023-03-06T16:07:14.296Z,2.84
2023-03-06T16:09:41.862Z,2.74
2023-03-06T16:12:26.493Z,2.56
2023-03-06T16:14:53.346Z,2.46
2023-03-06T16:17:20.142Z,2.31
2023-03-06T16:19:46.935Z,2.13
2023-03-06T16:22:13.968Z,2.06
2023-03-06T16:24:42.079Z,1.88
2023-03-06T16:27:15.336Z,1.79
2023-03-06T16:29:42.176Z,1.63
2023-03-06T16:32:10.355Z,1.54
2023-03-06T16:34:37.165Z,1.31
2023-03-06T16:37:03.930Z,1.21
2023-03-06T16:39:30.851Z,1.11
2023-03-06T16:41:57.702Z,0.99
2023-03-06T16:44:24.525Z,1.03
2023-03-06T16:46:51.317Z,1.04
2023-03-06T16:49:20.080Z,0.98
2023-03-06T16:51:47.094Z,1.01
2023-03-06T16:54:14.133Z,1.05
2023-03-06T16:56:41.092Z,1.01
2023-03-06T16:59:08.028Z,0.99
2023-03-06T17:01:34.978Z,1.02
2023-03-06T17:04:01.985Z,1.03
2023-03-06T17:06:30.287Z,1.01
2023-03-06T17:08:58.200Z,1.11
2023-03-06T17:11:25.206Z,1.14
2023-03-06T17:13:52.028Z,1.09
2023-03-06T17:16:18.931Z,1.14
2023-03-06T17:18:46.274Z,1.19
2023-03-06T17:21:15.651Z,1.20
2023-03-06T17:23:42.746Z,1.22
2023-03-06T17:26:18.889Z,1.21
2023-03-06T17:28:45.994Z,1.23
2023-03-06T17:31:16.069Z,1.29
2023-03-06T17:33:43.020Z,1.30
2023-03-06T17:36:10.189Z,1.31
2023-03-06T17:38:37.078Z,1.31
2023-03-06T17:41:07.608Z,1.29
2023-03-06T17:43:34.338Z,1.25
2023-03-06T17:46:11.004Z,1.24
2023-03-06T17:48:38.009Z,1.25
2023-03-06T17:51:05.138Z,1.25
2023-03-06T17:53:32.055Z,1.21
2023-03-06T17:55:59.083Z,1.14
2023-03-06T17:58:26.774Z,1.09
2023-03-06T18:00:53.689Z,1.08
2023-03-06T18:03:20.601Z,1.06
2023-03-06T18:05:47.388Z,0.98
2023-03-06T18:08:14.311Z,0.85
2023-03-06T18:10:41.876Z,0.87
2023-03-06T18:13:08.896Z,0.78
2023-03-06T18:15:39.503Z,0.61
2023-03-06T18:18:06.614Z,0.52
2023-03-06T18:20:33.438Z,0.31
2023-03-06T18:23:03.616Z,0.11
2023-03-06T18:25:31.711Z,-0.12
2023-03-06T18:27:58.694Z,-0.28
2023-03-06T18:30:25.603Z,-0.37
2023-03-06T18:32:52.432Z,-0.63
2023-03-06T18:35:19.199Z,-0.72
2023-03-06T18:37:45.983Z,-0.94
2023-03-06T18:40:13.569Z,-1.12
2023-03-06T18:42:40.369Z,-1.17
2023-03-06T18:45:07.968Z,-1.32
2023-03-06T18:47:34.833Z,-1.33
2023-03-06T18:50:02.894Z,-1.44
2023-03-06T18:52:29.705Z,-1.59
2023-03-06T18:54:56.523Z,-1.61
2023-03-06T18:57:23.405Z,-1.85
2023-03-06T18:59:50.232Z,-1.85
2023-03-06T19:02:17.127Z,-1.95
2023-03-06T19:04:43.912Z,-1.99
2023-03-06T19:07:11.256Z,-2.05
2023-03-06T19:09:38.116Z,-2.07
2023-03-06T19:12:05.756Z,-2.06
2023-03-06T19:14:32.694Z,-2.10
2023-03-06T19:16:59.537Z,-2.12
2023-03-06T19:19:26.963Z,-2.21
2023-03-06T19:21:53.894Z,-2.34
2023-03-06T19:24:20.632Z,-2.42
2023-03-06T19:26:47.481Z,-2.50
2023-03-06T19:29:14.265Z,-2.55
2023-03-06T19:31:41.296Z,-2.73
2023-03-06T19:34:08.339Z,-2.74
2023-03-06T19:36:35.216Z,-2.81
2023-03-06T19:39:03.310Z,-2.87
2023-03-06T19:41:30.097Z,-2.91
2023-03-06T19:43:58.518Z,-2.94
2023-03-06T19:46:25.557Z,-2.95
2023-03-06T19:49:00.199Z,-2.99
2023-03-06T19:51:27.419Z,-3.03
2023-03-06T19:53:54.236Z,-3.05
2023-03-06T19:56:23.260Z,-3.18
2023-03-06T19:58:50.099Z,-3.22
2023-03-06T20:01:18.301Z,-3.29
2023-03-06T20:03:45.099Z,-3.32
2023-03-06T20:06:16.494Z,-3.30
2023-03-06T20:08:43.820Z,-3.41
2023-03-06T20:11:26.896Z,-3.50
2023-03-06T20:13:54.101Z,-3.60
2023-03-06T20:16:20.907Z,-3.66
2023-03-06T20:18:47.701Z,-3.73
2023-03-06T20:21:14.750Z,-3.75
2023-03-06T20:23:41.808Z,-3.88
2023-03-06T20:26:10.406Z,-3.94
2023-03-06T20:28:39.171Z,-3.86
2023-03-06T20:31:10.287Z,-3.94
2023-03-06T20:33:37.169Z,-3.97
2023-03-06T20:36:04.408Z,-3.98
2023-03-06T20:38:31.265Z,-4.02
2023-03-06T20:40:59.778Z,-4.03
2023-03-06T20:43:26.593Z,-4.15
2023-03-06T20:46:00.689Z,-4.12
2023-03-06T20:48:27.550Z,-4.12
2023-03-06T20:51:04.919Z,-4.21
2023-03-06T20:53:32.111Z,-4.29
2023-03-06T20:55:58.888Z,-4.25
2023-03-06T20:58:28.696Z,-4.26
2023-03-06T21:00:56.110Z,-4.28
2023-03-06T21:03:22.889Z,-4.28
2023-03-06T21:05:49.836Z,-4.45
2023-03-06T21:08:16.715Z,-4.40
2023-03-06T21:10:44.837Z,-4.52
2023-03-06T21:13:11.704Z,-4.61
2023-03-06T21:15:39.544Z,-4.68
2023-03-06T21:18:06.449Z,-4.63
2023-03-06T21:20:33.832Z,-4.73
2023-03-06T21:23:01.809Z,-4.85
2023-03-06T21:25:29.157Z,-4.86
2023-03-06T21:27:56.117Z,-4.88
2023-03-06T21:30:22.890Z,-4.88
2023-03-06T21:32:51.098Z,-4.92
2023-03-06T21:35:18.682Z,-5.05
2023-03-06T21:37:46.023Z,-4.97
2023-03-06T21:40:14.207Z,-5.07
2023-03-06T21:42:41.560Z,-5.01
2023-03-06T21:45:08.860Z,-5.04
2023-03-06T21:47:38.998Z,-5.07
2023-03-06T21:50:07.423Z,-5.18
2023-03-06T21:52:34.374Z,-5.21
2023-03-06T21:55:01.155Z,-5.15
2023-03-06T21:57:28.019Z,-5.19
2023-03-06T21:59:54.878Z,-5.23
2023-03-06T22:02:21.701Z,-5.18
2023-03-06T22:04:52.670Z,-5.21
2023-03-06T22:07:20.293Z,-5.15
2023-03-06T22:09:47.316Z,-5.32
2023-03-06T22:12:14.551Z,-5.22
2023-03-06T22:14:43.651Z,-5.33
2023-03-06T22:17:10.428Z,-5.31
2023-03-06T22:19:37.323Z,-5.32
2023-03-06T22:22:04.537Z,-5.40
2023-03-06T22:24:34.001Z,-5.42
2023-03-06T22:27:00.858Z,-5.46
2023-03-06T22:29:27.676Z,-5.41
2023-03-06T22:31:54.527Z,-5.49
2023-03-06T22:34:21.325Z,-5.71
2023-03-06T22:36:48.364Z,-5.58
2023-03-06T22:39:15.226Z,-5.59
2023-03-06T22:41:42.060Z,-5.62
2023-03-06T22:44:09.992Z,-5.71
2023-03-06T22:46:36.827Z,-5.75
2023-03-06T22:49:03.860Z,-5.69
2023-03-06T22:51:30.938Z,-5.77
2023-03-06T22:53:58.250Z,-5.79
2023-03-06T22:56:25.082Z,-5.82
2023-03-06T22:58:52.082Z,-5.76
2023-03-06T23:01:20.742Z,-5.78
2023-03-06T23:03:49.240Z,-5.81
2023-03-06T23:06:22.805Z,-5.84
2023-03-06T23:08:51.387Z,-5.84
2023-03-06T23:11:19.613Z,-5.97
2023-03-06T23:13:46.533Z,-5.88
2023-03-06T23:16:13.383Z,-5.96
2023-03-06T23:18:40.437Z,-5.86
2023-03-06T23:21:11.549Z,-5.94
2023-03-06T23:23:39.025Z,-5.99
2023-03-06T23:26:06.669Z,-5.94
2023-03-06T23:28:33.653Z,-5.94
2023-03-06T23:31:00.946Z,-5.99
2023-03-06T23:33:27.849Z,-6.03
2023-03-06T23:35:54.739Z,-6.00
2023-03-06T23:38:21.643Z,-6.07
2023-03-06T23:40:49.628Z,-6.04
2023-03-06T23:43:16.488Z,-6.09
2023-03-06T23:45:52.716Z,-6.18
2023-03-06T23:48:19.635Z,-6.16
2023-03-06T23:50:46.402Z,-6.15
2023-03-06T23:53:13.468Z,-6.22
2023-03-06T23:55:47.224Z,-6.18
2023-03-06T23:58:16.370Z,-6.13
